Ora Direzione Vento Velocita' Vento Media Vento Raffica Max. Temperatura Wind Chill Pioggia Pressione
13:07:44.0127 °(SE)7.0 Kts4.3 Kts11.3 Kts13.4 °C12.3 °C0.0 mm1003.5 Hpa
12:47:07.091 °(E)4.3 Kts4.3 Kts11.3 Kts13.3 °C12.3 °C0.0 mm1003.5 Hpa
12:27:28.0105 °(ESE)3.5 Kts5.2 Kts11.3 Kts13.1 °C11.2 °C0.0 mm1003.4 Hpa
12:07:36.0105 °(ESE)5.2 Kts6.1 Kts11.3 Kts12.9 °C10.4 °C0.0 mm1003.4 Hpa
11:46:53.086 °(E)5.2 Kts7.8 Kts11.3 Kts13.3 °C9.3 °C0.0 mm1003.2 Hpa
11:27:11.072 °(ENE)8.7 Kts7.8 Kts11.3 Kts13.7 °C9.8 °C0.0 mm1003.4 Hpa
11:07:42.075 °(ENE)7.8 Kts7.8 Kts11.3 Kts13.8 °C9.9 °C0.0 mm1003.2 Hpa
10:46:50.074 °(ENE)9.6 Kts7.8 Kts10.4 Kts14.1 °C10.2 °C0.0 mm1003.1 Hpa
10:27:05.070 °(ENE)8.7 Kts7.0 Kts10.4 Kts15.8 °C12.9 °C0.0 mm1002.9 Hpa
10:07:33.0189 °(S)4.3 Kts2.6 Kts10.4 Kts19.8 °C19.8 °C0.0 mm1002.5 Hpa
09:46:58.0222 °(SW)5.2 Kts3.5 Kts10.4 Kts18.6 °C18.6 °C0.0 mm1002.5 Hpa
09:27:22.0210 °(SSW)0.9 Kts3.5 Kts10.4 Kts17.2 °C17.2 °C0.0 mm1002.4 Hpa
09:06:40.0148 °(SSE)0.0 Kts1.7 Kts9.6 Kts16.4 °C16.4 °C0.0 mm1002.2 Hpa
08:46:51.0214 °(SW)2.6 Kts2.6 Kts9.6 Kts15.8 °C15.8 °C0.0 mm1002.0 Hpa
08:27:12.0188 °(S)4.3 Kts2.6 Kts9.6 Kts15.7 °C15.7 °C0.0 mm1002.0 Hpa
08:06:44.0262 °(W)5.2 Kts2.6 Kts9.6 Kts15.3 °C15.3 °C0.0 mm1001.9 Hpa
07:47:28.0183 °(S)4.3 Kts2.6 Kts9.6 Kts14.9 °C14.9 °C0.0 mm1001.8 Hpa
07:27:20.0153 °(SSE)0.0 Kts1.7 Kts9.6 Kts14.6 °C14.6 °C0.0 mm1001.6 Hpa
07:06:42.0121 °(ESE)3.5 Kts3.5 Kts9.6 Kts13.6 °C13.6 °C0.0 mm1001.5 Hpa
06:47:36.0143 °(SE)3.5 Kts5.2 Kts9.6 Kts13.2 °C11.3 °C0.0 mm1001.2 Hpa